sensor_id;sensor_type;location;lat;lon;timestamp;temperature;humidity
23813;DHT22;12087;45.190;5.688;2023-05-29T00:03:25;16.80;99.90
23813;DHT22;12087;45.190;5.688;2023-05-29T00:08:49;16.90;99.90
23813;DHT22;12087;45.190;5.688;2023-05-29T00:14:11;16.90;99.90
23813;DHT22;12087;45.190;5.688;2023-05-29T00:19:34;16.90;99.90
23813;DHT22;12087;45.190;5.688;2023-05-29T00:24:58;16.80;99.90
23813;DHT22;12087;45.190;5.688;2023-05-29T00:30:21;16.80;99.90
23813;DHT22;12087;45.190;5.688;2023-05-29T00:35:43;16.80;99.90
23813;DHT22;12087;45.190;5.688;2023-05-29T00:41:13;16.80;99.90
23813;DHT22;12087;45.190;5.688;2023-05-29T00:46:36;16.90;99.90
23813;DHT22;12087;45.190;5.688;2023-05-29T00:51:58;16.90;99.90
23813;DHT22;12087;45.190;5.688;2023-05-29T00:57:22;16.90;99.90
23813;DHT22;12087;45.190;5.688;2023-05-29T01:02:45;17.00;99.90
23813;DHT22;12087;45.190;5.688;2023-05-29T01:08:07;17.00;99.90
23813;DHT22;12087;45.190;5.688;2023-05-29T01:13:31;17.00;99.90
23813;DHT22;12087;45.190;5.688;2023-05-29T01:19:04;17.00;99.90
23813;DHT22;12087;45.190;5.688;2023-05-29T01:24:38;17.00;99.90
23813;DHT22;12087;45.190;5.688;2023-05-29T01:30:08;17.00;99.90
23813;DHT22;12087;45.190;5.688;2023-05-29T01:35:31;17.10;99.90
23813;DHT22;12087;45.190;5.688;2023-05-29T01:40:54;17.10;99.90
23813;DHT22;12087;45.190;5.688;2023-05-29T01:46:18;17.10;99.90
23813;DHT22;12087;45.190;5.688;2023-05-29T01:51:41;17.10;99.90
23813;DHT22;12087;45.190;5.688;2023-05-29T01:57:05;17.10;99.90
23813;DHT22;12087;45.190;5.688;2023-05-29T02:02:29;17.20;99.90
23813;DHT22;12087;45.190;5.688;2023-05-29T02:07:51;17.10;99.90
23813;DHT22;12087;45.190;5.688;2023-05-29T02:13:14;17.10;99.90
23813;DHT22;12087;45.190;5.688;2023-05-29T02:18:38;17.00;99.90
23813;DHT22;12087;45.190;5.688;2023-05-29T02:24:02;16.90;99.90
23813;DHT22;12087;45.190;5.688;2023-05-29T02:29:24;16.90;99.90
23813;DHT22;12087;45.190;5.688;2023-05-29T02:34:47;17.00;99.90
23813;DHT22;12087;45.190;5.688;2023-05-29T02:40:10;16.90;99.90
23813;DHT22;12087;45.190;5.688;2023-05-29T02:45:33;17.00;99.90
23813;DHT22;12087;45.190;5.688;2023-05-29T02:50:57;16.90;99.90
23813;DHT22;12087;45.190;5.688;2023-05-29T02:56:19;16.90;99.90
23813;DHT22;12087;45.190;5.688;2023-05-29T03:01:44;16.90;99.90
23813;DHT22;12087;45.190;5.688;2023-05-29T03:07:10;16.80;99.90
23813;DHT22;12087;45.190;5.688;2023-05-29T03:12:33;16.80;99.90
23813;DHT22;12087;45.190;5.688;2023-05-29T03:17:55;16.80;99.90
23813;DHT22;12087;45.190;5.688;2023-05-29T03:23:19;16.90;99.90
23813;DHT22;12087;45.190;5.688;2023-05-29T03:28:41;16.80;99.90
23813;DHT22;12087;45.190;5.688;2023-05-29T03:34:03;16.80;99.90
23813;DHT22;12087;45.190;5.688;2023-05-29T03:39:27;16.80;99.90
23813;DHT22;12087;45.190;5.688;2023-05-29T03:44:49;16.80;99.90
23813;DHT22;12087;45.190;5.688;2023-05-29T03:50:13;16.70;99.90
23813;DHT22;12087;45.190;5.688;2023-05-29T03:55:37;16.70;99.90
23813;DHT22;12087;45.190;5.688;2023-05-29T04:01:00;16.60;99.90
23813;DHT22;12087;45.190;5.688;2023-05-29T04:06:22;16.60;99.90
23813;DHT22;12087;45.190;5.688;2023-05-29T04:11:46;16.60;99.90
23813;DHT22;12087;45.190;5.688;2023-05-29T04:17:08;16.50;99.90
23813;DHT22;12087;45.190;5.688;2023-05-29T04:22:30;16.50;99.90
23813;DHT22;12087;45.190;5.688;2023-05-29T04:27:54;16.40;99.90
23813;DHT22;12087;45.190;5.688;2023-05-29T04:33:17;16.40;99.90
23813;DHT22;12087;45.190;5.688;2023-05-29T04:38:41;16.40;99.90
23813;DHT22;12087;45.190;5.688;2023-05-29T04:44:07;16.40;99.90
23813;DHT22;12087;45.190;5.688;2023-05-29T04:49:32;16.40;99.90
23813;DHT22;12087;45.190;5.688;2023-05-29T04:54:54;16.50;99.90
23813;DHT22;12087;45.190;5.688;2023-05-29T05:00:19;16.50;99.90
23813;DHT22;12087;45.190;5.688;2023-05-29T05:05:42;16.40;99.90
23813;DHT22;12087;45.190;5.688;2023-05-29T05:11:04;16.50;99.90
23813;DHT22;12087;45.190;5.688;2023-05-29T05:16:28;16.50;99.90
23813;DHT22;12087;45.190;5.688;2023-05-29T05:21:50;16.40;99.90
23813;DHT22;12087;45.190;5.688;2023-05-29T05:27:13;16.50;99.90
23813;DHT22;12087;45.190;5.688;2023-05-29T05:32:36;16.60;99.90
23813;DHT22;12087;45.190;5.688;2023-05-29T05:37:59;16.60;99.90
23813;DHT22;12087;45.190;5.688;2023-05-29T05:43:21;16.70;99.90
23813;DHT22;12087;45.190;5.688;2023-05-29T05:48:45;16.80;99.90
23813;DHT22;12087;45.190;5.688;2023-05-29T05:54:07;16.80;99.90
23813;DHT22;12087;45.190;5.688;2023-05-29T05:59:29;16.90;99.90
23813;DHT22;12087;45.190;5.688;2023-05-29T06:04:53;17.00;99.90
23813;DHT22;12087;45.190;5.688;2023-05-29T06:10:15;17.00;99.90
23813;DHT22;12087;45.190;5.688;2023-05-29T06:15:37;17.10;99.90
23813;DHT22;12087;45.190;5.688;2023-05-29T06:21:01;17.20;99.90
23813;DHT22;12087;45.190;5.688;2023-05-29T06:26:23;17.30;99.90
23813;DHT22;12087;45.190;5.688;2023-05-29T06:31:46;17.40;99.90
23813;DHT22;12087;45.190;5.688;2023-05-29T06:37:10;17.40;99.90
23813;DHT22;12087;45.190;5.688;2023-05-29T06:42:32;17.50;99.90
23813;DHT22;12087;45.190;5.688;2023-05-29T06:47:54;17.60;99.90
23813;DHT22;12087;45.190;5.688;2023-05-29T06:53:18;17.70;99.90
23813;DHT22;12087;45.190;5.688;2023-05-29T06:58:40;17.80;99.90
23813;DHT22;12087;45.190;5.688;2023-05-29T07:04:03;17.90;99.90
23813;DHT22;12087;45.190;5.688;2023-05-29T07:09:26;18.00;99.90
23813;DHT22;12087;45.190;5.688;2023-05-29T07:14:48;18.10;99.90
23813;DHT22;12087;45.190;5.688;2023-05-29T07:20:11;18.30;99.90
23813;DHT22;12087;45.190;5.688;2023-05-29T07:25:37;18.40;99.90
23813;DHT22;12087;45.190;5.688;2023-05-29T07:30:59;18.50;99.90
23813;DHT22;12087;45.190;5.688;2023-05-29T07:36:21;18.60;99.90
23813;DHT22;12087;45.190;5.688;2023-05-29T07:41:45;18.80;99.90
23813;DHT22;12087;45.190;5.688;2023-05-29T07:47:07;18.90;99.90
23813;DHT22;12087;45.190;5.688;2023-05-29T07:52:30;19.00;99.90
23813;DHT22;12087;45.190;5.688;2023-05-29T07:57:53;19.10;99.90
23813;DHT22;12087;45.190;5.688;2023-05-29T08:03:16;19.30;99.90
23813;DHT22;12087;45.190;5.688;2023-05-29T08:08:38;19.50;99.90
23813;DHT22;12087;45.190;5.688;2023-05-29T08:14:02;19.50;99.90
23813;DHT22;12087;45.190;5.688;2023-05-29T08:19:24;19.70;99.90
23813;DHT22;12087;45.190;5.688;2023-05-29T08:24:46;19.90;99.90
23813;DHT22;12087;45.190;5.688;2023-05-29T08:30:12;20.10;99.90
23813;DHT22;12087;45.190;5.688;2023-05-29T08:35:34;20.40;99.90
23813;DHT22;12087;45.190;5.688;2023-05-29T08:40:57;20.70;99.90
23813;DHT22;12087;45.190;5.688;2023-05-29T08:46:21;21.00;99.90
23813;DHT22;12087;45.190;5.688;2023-05-29T08:51:45;21.10;99.90
23813;DHT22;12087;45.190;5.688;2023-05-29T08:57:11;21.40;99.90
23813;DHT22;12087;45.190;5.688;2023-05-29T09:02:36;21.70;99.90
23813;DHT22;12087;45.190;5.688;2023-05-29T09:07:59;21.90;99.90
23813;DHT22;12087;45.190;5.688;2023-05-29T09:13:21;22.10;99.90
23813;DHT22;12087;45.190;5.688;2023-05-29T09:18:45;22.20;99.90
23813;DHT22;12087;45.190;5.688;2023-05-29T09:24:07;22.50;99.90
23813;DHT22;12087;45.190;5.688;2023-05-29T09:29:31;22.70;99.90
23813;DHT22;12087;45.190;5.688;2023-05-29T09:34:59;22.80;99.90
23813;DHT22;12087;45.190;5.688;2023-05-29T09:40:21;23.00;99.90
23813;DHT22;12087;45.190;5.688;2023-05-29T09:45:45;23.40;99.90
23813;DHT22;12087;45.190;5.688;2023-05-29T09:51:19;23.60;99.90
23813;DHT22;12087;45.190;5.688;2023-05-29T09:56:44;23.80;99.90
23813;DHT22;12087;45.190;5.688;2023-05-29T10:02:06;23.90;99.90
23813;DHT22;12087;45.190;5.688;2023-05-29T10:07:36;24.20;99.90
23813;DHT22;12087;45.190;5.688;2023-05-29T10:13:00;24.30;99.90
23813;DHT22;12087;45.190;5.688;2023-05-29T10:18:27;24.60;99.90
23813;DHT22;12087;45.190;5.688;2023-05-29T10:23:53;24.80;99.90
23813;DHT22;12087;45.190;5.688;2023-05-29T10:29:23;24.90;99.90
23813;DHT22;12087;45.190;5.688;2023-05-29T10:34:54;24.90;99.90
23813;DHT22;12087;45.190;5.688;2023-05-29T10:40:23;25.10;99.90
23813;DHT22;12087;45.190;5.688;2023-05-29T10:45:49;25.50;99.90
23813;DHT22;12087;45.190;5.688;2023-05-29T10:51:36;25.70;99.90
23813;DHT22;12087;45.190;5.688;2023-05-29T10:57:03;25.90;99.90
23813;DHT22;12087;45.190;5.688;2023-05-29T11:02:30;26.20;99.90
23813;DHT22;12087;45.190;5.688;2023-05-29T11:07:56;26.30;99.90
23813;DHT22;12087;45.190;5.688;2023-05-29T11:13:31;26.30;99.90
23813;DHT22;12087;45.190;5.688;2023-05-29T11:18:56;26.50;99.90
23813;DHT22;12087;45.190;5.688;2023-05-29T11:24:22;26.70;99.90
23813;DHT22;12087;45.190;5.688;2023-05-29T11:29:48;26.80;99.90
23813;DHT22;12087;45.190;5.688;2023-05-29T11:35:14;26.90;99.90
23813;DHT22;12087;45.190;5.688;2023-05-29T11:40:37;27.00;99.90
23813;DHT22;12087;45.190;5.688;2023-05-29T11:46:01;27.30;99.30
23813;DHT22;12087;45.190;5.688;2023-05-29T11:51:23;27.30;99.80
23813;DHT22;12087;45.190;5.688;2023-05-29T11:56:47;27.50;98.40
23813;DHT22;12087;45.190;5.688;2023-05-29T12:02:12;27.70;97.40
23813;DHT22;12087;45.190;5.688;2023-05-29T12:07:35;27.90;98.50
23813;DHT22;12087;45.190;5.688;2023-05-29T12:12:59;28.00;95.90
23813;DHT22;12087;45.190;5.688;2023-05-29T12:18:23;28.20;95.90
23813;DHT22;12087;45.190;5.688;2023-05-29T12:23:45;28.20;95.20
23813;DHT22;12087;45.190;5.688;2023-05-29T12:29:08;28.30;95.70
23813;DHT22;12087;45.190;5.688;2023-05-29T12:34:35;28.10;95.00
23813;DHT22;12087;45.190;5.688;2023-05-29T12:40:13;28.20;94.40
23813;DHT22;12087;45.190;5.688;2023-05-29T12:45:36;28.20;94.50
23813;DHT22;12087;45.190;5.688;2023-05-29T12:51:04;28.50;94.00
23813;DHT22;12087;45.190;5.688;2023-05-29T12:56:28;28.60;93.50
23813;DHT22;12087;45.190;5.688;2023-05-29T13:01:50;28.90;94.20
23813;DHT22;12087;45.190;5.688;2023-05-29T13:07:14;28.90;92.10
23813;DHT22;12087;45.190;5.688;2023-05-29T13:12:36;28.90;92.80
23813;DHT22;12087;45.190;5.688;2023-05-29T13:17:59;29.10;92.40
23813;DHT22;12087;45.190;5.688;2023-05-29T13:23:22;29.40;90.10
23813;DHT22;12087;45.190;5.688;2023-05-29T13:28:44;29.40;90.50
23813;DHT22;12087;45.190;5.688;2023-05-29T13:34:07;29.40;90.20
23813;DHT22;12087;45.190;5.688;2023-05-29T13:39:30;29.70;90.70
23813;DHT22;12087;45.190;5.688;2023-05-29T13:44:53;29.50;89.30
23813;DHT22;12087;45.190;5.688;2023-05-29T13:50:15;29.80;86.00
23813;DHT22;12087;45.190;5.688;2023-05-29T13:55:39;29.80;87.10
23813;DHT22;12087;45.190;5.688;2023-05-29T14:01:01;29.80;85.70
23813;DHT22;12087;45.190;5.688;2023-05-29T14:06:23;29.90;86.30
23813;DHT22;12087;45.190;5.688;2023-05-29T14:11:47;29.80;84.30
23813;DHT22;12087;45.190;5.688;2023-05-29T14:17:09;29.60;88.00
23813;DHT22;12087;45.190;5.688;2023-05-29T14:22:33;29.60;88.20
23813;DHT22;12087;45.190;5.688;2023-05-29T14:27:56;29.40;90.90
23813;DHT22;12087;45.190;5.688;2023-05-29T14:33:18;29.10;91.50
23813;DHT22;12087;45.190;5.688;2023-05-29T14:38:41;28.70;90.10
23813;DHT22;12087;45.190;5.688;2023-05-29T14:44:05;28.50;92.00
23813;DHT22;12087;45.190;5.688;2023-05-29T14:49:27;28.20;91.60
23813;DHT22;12087;45.190;5.688;2023-05-29T14:54:54;27.90;92.50
23813;DHT22;12087;45.190;5.688;2023-05-29T15:00:18;27.50;92.90
23813;DHT22;12087;45.190;5.688;2023-05-29T15:05:42;27.00;94.50
23813;DHT22;12087;45.190;5.688;2023-05-29T15:11:04;26.30;99.90
23813;DHT22;12087;45.190;5.688;2023-05-29T15:16:28;25.70;99.90
23813;DHT22;12087;45.190;5.688;2023-05-29T15:21:50;25.00;99.90
23813;DHT22;12087;45.190;5.688;2023-05-29T15:27:12;24.40;99.90
23813;DHT22;12087;45.190;5.688;2023-05-29T15:32:37;23.80;99.90
23813;DHT22;12087;45.190;5.688;2023-05-29T15:37:59;23.40;99.90
23813;DHT22;12087;45.190;5.688;2023-05-29T15:43:23;23.20;99.90
23813;DHT22;12087;45.190;5.688;2023-05-29T15:48:48;23.00;99.90
23813;DHT22;12087;45.190;5.688;2023-05-29T15:54:11;22.90;99.90
23813;DHT22;12087;45.190;5.688;2023-05-29T15:59:34;22.60;99.90
23813;DHT22;12087;45.190;5.688;2023-05-29T16:04:58;22.40;99.90
23813;DHT22;12087;45.190;5.688;2023-05-29T16:10:20;22.20;99.90
23813;DHT22;12087;45.190;5.688;2023-05-29T16:15:43;22.10;99.90
23813;DHT22;12087;45.190;5.688;2023-05-29T16:21:14;21.90;99.90
23813;DHT22;12087;45.190;5.688;2023-05-29T16:26:52;21.70;99.90
23813;DHT22;12087;45.190;5.688;2023-05-29T16:32:15;21.50;99.90
23813;DHT22;12087;45.190;5.688;2023-05-29T16:37:39;21.40;99.90
23813;DHT22;12087;45.190;5.688;2023-05-29T16:43:01;21.40;99.90
23813;DHT22;12087;45.190;5.688;2023-05-29T16:48:23;21.40;99.90
23813;DHT22;12087;45.190;5.688;2023-05-29T16:53:50;21.30;99.90
23813;DHT22;12087;45.190;5.688;2023-05-29T16:59:13;21.20;99.90
23813;DHT22;12087;45.190;5.688;2023-05-29T17:04:36;21.10;99.90
23813;DHT22;12087;45.190;5.688;2023-05-29T17:10:00;20.80;99.90
23813;DHT22;12087;45.190;5.688;2023-05-29T17:15:22;20.70;99.90
23813;DHT22;12087;45.190;5.688;2023-05-29T17:20:44;20.50;99.90
23813;DHT22;12087;45.190;5.688;2023-05-29T17:26:08;20.30;99.90
23813;DHT22;12087;45.190;5.688;2023-05-29T17:31:31;20.40;99.90
23813;DHT22;12087;45.190;5.688;2023-05-29T17:36:53;20.40;99.90
23813;DHT22;12087;45.190;5.688;2023-05-29T17:42:17;20.20;99.90
23813;DHT22;12087;45.190;5.688;2023-05-29T17:47:40;20.10;99.90
23813;DHT22;12087;45.190;5.688;2023-05-29T17:53:02;20.10;99.90
23813;DHT22;12087;45.190;5.688;2023-05-29T17:58:26;20.00;99.90
23813;DHT22;12087;45.190;5.688;2023-05-29T18:03:49;19.90;99.90
23813;DHT22;12087;45.190;5.688;2023-05-29T18:09:11;19.80;99.90
23813;DHT22;12087;45.190;5.688;2023-05-29T18:14:35;19.70;99.90
23813;DHT22;12087;45.190;5.688;2023-05-29T18:19:57;19.70;99.90
23813;DHT22;12087;45.190;5.688;2023-05-29T18:25:20;19.70;99.90
23813;DHT22;12087;45.190;5.688;2023-05-29T18:30:43;19.60;99.90
23813;DHT22;12087;45.190;5.688;2023-05-29T18:36:06;19.60;99.90
23813;DHT22;12087;45.190;5.688;2023-05-29T18:41:29;19.50;99.90
23813;DHT22;12087;45.190;5.688;2023-05-29T18:46:52;19.50;99.90
23813;DHT22;12087;45.190;5.688;2023-05-29T18:52:14;19.40;99.90
23813;DHT22;12087;45.190;5.688;2023-05-29T18:57:37;19.30;99.90
23813;DHT22;12087;45.190;5.688;2023-05-29T19:03:00;19.30;99.90
23813;DHT22;12087;45.190;5.688;2023-05-29T19:08:22;19.10;99.90
23813;DHT22;12087;45.190;5.688;2023-05-29T19:13:45;19.10;99.90
23813;DHT22;12087;45.190;5.688;2023-05-29T19:19:09;19.00;99.90
23813;DHT22;12087;45.190;5.688;2023-05-29T19:24:32;18.90;99.90
23813;DHT22;12087;45.190;5.688;2023-05-29T19:29:54;18.90;99.90
23813;DHT22;12087;45.190;5.688;2023-05-29T19:35:18;18.90;99.90
23813;DHT22;12087;45.190;5.688;2023-05-29T19:40:40;18.80;99.90
23813;DHT22;12087;45.190;5.688;2023-05-29T19:46:02;18.80;99.90
23813;DHT22;12087;45.190;5.688;2023-05-29T19:51:27;18.70;99.90
23813;DHT22;12087;45.190;5.688;2023-05-29T19:56:49;18.70;99.90
23813;DHT22;12087;45.190;5.688;2023-05-29T20:02:11;18.70;99.90
23813;DHT22;12087;45.190;5.688;2023-05-29T20:07:35;18.70;99.90
23813;DHT22;12087;45.190;5.688;2023-05-29T20:12:57;18.70;99.90
23813;DHT22;12087;45.190;5.688;2023-05-29T20:18:19;18.70;99.90
23813;DHT22;12087;45.190;5.688;2023-05-29T20:23:43;18.60;99.90
23813;DHT22;12087;45.190;5.688;2023-05-29T20:29:05;18.60;99.90
23813;DHT22;12087;45.190;5.688;2023-05-29T20:34:28;18.60;99.90
23813;DHT22;12087;45.190;5.688;2023-05-29T20:39:51;18.60;99.90
23813;DHT22;12087;45.190;5.688;2023-05-29T20:45:14;18.50;99.90
23813;DHT22;12087;45.190;5.688;2023-05-29T20:50:38;18.50;99.90
23813;DHT22;12087;45.190;5.688;2023-05-29T20:56:02;18.40;99.90
23813;DHT22;12087;45.190;5.688;2023-05-29T21:01:24;18.40;99.90
23813;DHT22;12087;45.190;5.688;2023-05-29T21:06:46;18.30;99.90
23813;DHT22;12087;45.190;5.688;2023-05-29T21:12:11;18.30;99.90
23813;DHT22;12087;45.190;5.688;2023-05-29T21:17:33;18.30;99.90
23813;DHT22;12087;45.190;5.688;2023-05-29T21:22:55;18.30;99.90
23813;DHT22;12087;45.190;5.688;2023-05-29T21:28:19;18.30;99.90
23813;DHT22;12087;45.190;5.688;2023-05-29T21:33:42;18.20;99.90
23813;DHT22;12087;45.190;5.688;2023-05-29T21:39:04;18.20;99.90
23813;DHT22;12087;45.190;5.688;2023-05-29T21:44:28;18.10;99.90
23813;DHT22;12087;45.190;5.688;2023-05-29T21:49:51;18.00;99.90
23813;DHT22;12087;45.190;5.688;2023-05-29T21:55:13;17.90;99.90
23813;DHT22;12087;45.190;5.688;2023-05-29T22:00:39;17.90;99.90
23813;DHT22;12087;45.190;5.688;2023-05-29T22:06:01;17.80;99.90
23813;DHT22;12087;45.190;5.688;2023-05-29T22:11:24;17.70;99.90
23813;DHT22;12087;45.190;5.688;2023-05-29T22:16:48;17.70;99.90
23813;DHT22;12087;45.190;5.688;2023-05-29T22:22:10;17.70;99.90
23813;DHT22;12087;45.190;5.688;2023-05-29T22:27:32;17.60;99.90
23813;DHT22;12087;45.190;5.688;2023-05-29T22:32:56;17.50;99.90
23813;DHT22;12087;45.190;5.688;2023-05-29T22:38:18;17.40;99.90
23813;DHT22;12087;45.190;5.688;2023-05-29T22:43:41;17.40;99.90
23813;DHT22;12087;45.190;5.688;2023-05-29T22:49:05;17.40;99.90
23813;DHT22;12087;45.190;5.688;2023-05-29T22:54:27;17.30;99.90
23813;DHT22;12087;45.190;5.688;2023-05-29T22:59:50;17.20;99.90
23813;DHT22;12087;45.190;5.688;2023-05-29T23:05:13;17.20;99.90
23813;DHT22;12087;45.190;5.688;2023-05-29T23:10:36;17.10;99.90
23813;DHT22;12087;45.190;5.688;2023-05-29T23:15:58;17.10;99.90
23813;DHT22;12087;45.190;5.688;2023-05-29T23:21:22;17.10;99.90
23813;DHT22;12087;45.190;5.688;2023-05-29T23:26:44;17.00;99.90
23813;DHT22;12087;45.190;5.688;2023-05-29T23:32:07;17.00;99.90
23813;DHT22;12087;45.190;5.688;2023-05-29T23:37:30;16.90;99.90
23813;DHT22;12087;45.190;5.688;2023-05-29T23:42:52;16.90;99.90
23813;DHT22;12087;45.190;5.688;2023-05-29T23:48:15;16.90;99.90
23813;DHT22;12087;45.190;5.688;2023-05-29T23:53:39;16.90;99.90
23813;DHT22;12087;45.190;5.688;2023-05-29T23:59:01;16.80;99.90
